Cainsville, Missouri
Current Conditions -  °F | °C
As of 12:31 AM on Saturday 20 Dec 2014 (Local Time) from KLWD Reporting Station
Overcast Overcast  
Wind Chill: 22°   Ceiling: 1400
Heat Index: 30°   Visibility: 8mi
Dew Point: 29°   Wind: 9mph
Humidity: 96%   Direction: 220°SW
Pressure: 30.18"   Gusts: NA
Location:  40.44°N, 93.78°W
Report Text: KLWD 200631Z AUTO 22008KT 8SM SCT007 OVC014 M01/M02 A3018 RMK AO2 T10111017
Loading
Personal Weather Stations






























Interactive Weather Map New forecast layout! Learn more

10-Day Weather Forecast

Advertisements
Track Severe Weather on mobile